sensor_id;sensor_type;location;lat;lon;timestamp;temperature;humidity
44277;DHT22;29973;43.742;1.236;2022-08-26T00:01:30;22.00;99.90
44277;DHT22;29973;43.742;1.236;2022-08-26T00:03:57;21.90;99.90
44277;DHT22;29973;43.742;1.236;2022-08-26T00:06:23;21.90;99.90
44277;DHT22;29973;43.742;1.236;2022-08-26T00:08:49;21.90;99.90
44277;DHT22;29973;43.742;1.236;2022-08-26T00:11:15;21.80;99.90
44277;DHT22;29973;43.742;1.236;2022-08-26T00:13:41;21.80;99.90
44277;DHT22;29973;43.742;1.236;2022-08-26T00:16:08;21.70;99.90
44277;DHT22;29973;43.742;1.236;2022-08-26T00:18:34;21.70;99.90
44277;DHT22;29973;43.742;1.236;2022-08-26T00:20:59;21.70;99.90
44277;DHT22;29973;43.742;1.236;2022-08-26T00:23:25;21.60;99.90
44277;DHT22;29973;43.742;1.236;2022-08-26T00:25:52;21.60;99.90
44277;DHT22;29973;43.742;1.236;2022-08-26T00:28:18;21.50;99.90
44277;DHT22;29973;43.742;1.236;2022-08-26T00:30:44;21.40;99.90
44277;DHT22;29973;43.742;1.236;2022-08-26T00:33:16;21.30;99.90
44277;DHT22;29973;43.742;1.236;2022-08-26T00:35:42;21.20;99.90
44277;DHT22;29973;43.742;1.236;2022-08-26T00:38:08;21.20;99.90
44277;DHT22;29973;43.742;1.236;2022-08-26T00:40:42;21.20;99.90
44277;DHT22;29973;43.742;1.236;2022-08-26T00:43:08;21.20;99.90
44277;DHT22;29973;43.742;1.236;2022-08-26T00:48:17;21.10;99.90
44277;DHT22;29973;43.742;1.236;2022-08-26T00:51:11;21.10;99.90
44277;DHT22;29973;43.742;1.236;2022-08-26T00:54:05;21.10;99.90
44277;DHT22;29973;43.742;1.236;2022-08-26T00:56:35;21.00;99.90
44277;DHT22;29973;43.742;1.236;2022-08-26T00:59:06;21.00;99.90
44277;DHT22;29973;43.742;1.236;2022-08-26T01:01:33;21.00;99.90
44277;DHT22;29973;43.742;1.236;2022-08-26T01:03:59;21.00;99.90
44277;DHT22;29973;43.742;1.236;2022-08-26T01:06:26;20.90;99.90
44277;DHT22;29973;43.742;1.236;2022-08-26T01:08:53;21.00;99.90
44277;DHT22;29973;43.742;1.236;2022-08-26T01:11:19;20.90;99.90
44277;DHT22;29973;43.742;1.236;2022-08-26T01:13:45;20.90;99.90
44277;DHT22;29973;43.742;1.236;2022-08-26T01:16:13;21.00;99.90
44277;DHT22;29973;43.742;1.236;2022-08-26T01:18:41;21.00;99.90
44277;DHT22;29973;43.742;1.236;2022-08-26T01:23:42;20.90;99.90
44277;DHT22;29973;43.742;1.236;2022-08-26T01:26:14;20.90;99.90
44277;DHT22;29973;43.742;1.236;2022-08-26T01:28:41;20.90;99.90
44277;DHT22;29973;43.742;1.236;2022-08-26T01:31:10;20.90;99.90
44277;DHT22;29973;43.742;1.236;2022-08-26T01:33:46;20.80;99.90
44277;DHT22;29973;43.742;1.236;2022-08-26T01:36:12;20.80;99.90
44277;DHT22;29973;43.742;1.236;2022-08-26T01:38:39;20.80;99.90
44277;DHT22;29973;43.742;1.236;2022-08-26T01:41:06;20.90;99.90
44277;DHT22;29973;43.742;1.236;2022-08-26T01:43:35;20.80;99.90
44277;DHT22;29973;43.742;1.236;2022-08-26T01:46:03;21.00;99.90
44277;DHT22;29973;43.742;1.236;2022-08-26T01:48:32;20.90;99.90
44277;DHT22;29973;43.742;1.236;2022-08-26T01:51:00;21.00;99.90
44277;DHT22;29973;43.742;1.236;2022-08-26T01:53:27;20.90;99.90
44277;DHT22;29973;43.742;1.236;2022-08-26T01:55:55;21.00;99.90
44277;DHT22;29973;43.742;1.236;2022-08-26T01:58:29;21.00;99.90
44277;DHT22;29973;43.742;1.236;2022-08-26T02:00:56;21.10;99.90
44277;DHT22;29973;43.742;1.236;2022-08-26T02:03:22;21.10;99.90
44277;DHT22;29973;43.742;1.236;2022-08-26T02:05:59;21.10;99.90
44277;DHT22;29973;43.742;1.236;2022-08-26T02:08:30;21.00;99.90
44277;DHT22;29973;43.742;1.236;2022-08-26T02:10:59;21.00;99.90
44277;DHT22;29973;43.742;1.236;2022-08-26T02:13:27;21.00;99.90
44277;DHT22;29973;43.742;1.236;2022-08-26T02:15:55;20.80;99.90
44277;DHT22;29973;43.742;1.236;2022-08-26T02:18:22;20.80;99.90
44277;DHT22;29973;43.742;1.236;2022-08-26T02:20:48;20.70;99.90
44277;DHT22;29973;43.742;1.236;2022-08-26T02:23:17;20.80;99.90
44277;DHT22;29973;43.742;1.236;2022-08-26T02:25:49;20.70;99.90
44277;DHT22;29973;43.742;1.236;2022-08-26T02:28:16;20.70;99.90
44277;DHT22;29973;43.742;1.236;2022-08-26T02:30:43;20.60;99.90
44277;DHT22;29973;43.742;1.236;2022-08-26T02:33:09;20.50;99.90
44277;DHT22;29973;43.742;1.236;2022-08-26T02:35:37;20.50;99.90
44277;DHT22;29973;43.742;1.236;2022-08-26T02:38:06;20.40;99.90
44277;DHT22;29973;43.742;1.236;2022-08-26T02:40:39;20.30;99.90
44277;DHT22;29973;43.742;1.236;2022-08-26T02:43:06;20.40;99.90
44277;DHT22;29973;43.742;1.236;2022-08-26T02:45:32;20.50;99.90
44277;DHT22;29973;43.742;1.236;2022-08-26T02:47:59;20.40;99.90
44277;DHT22;29973;43.742;1.236;2022-08-26T02:50:28;20.40;99.90
44277;DHT22;29973;43.742;1.236;2022-08-26T02:52:54;20.40;99.90
44277;DHT22;29973;43.742;1.236;2022-08-26T02:55:20;20.50;99.90
44277;DHT22;29973;43.742;1.236;2022-08-26T02:57:45;20.60;99.90
44277;DHT22;29973;43.742;1.236;2022-08-26T03:00:12;20.70;99.90
44277;DHT22;29973;43.742;1.236;2022-08-26T03:02:39;20.70;99.90
44277;DHT22;29973;43.742;1.236;2022-08-26T03:05:05;20.70;99.90
44277;DHT22;29973;43.742;1.236;2022-08-26T03:07:31;20.70;99.90
44277;DHT22;29973;43.742;1.236;2022-08-26T03:09:57;20.80;99.90
44277;DHT22;29973;43.742;1.236;2022-08-26T03:12:23;20.80;99.90
44277;DHT22;29973;43.742;1.236;2022-08-26T03:14:49;20.80;99.90
44277;DHT22;29973;43.742;1.236;2022-08-26T03:17:15;20.90;99.90
44277;DHT22;29973;43.742;1.236;2022-08-26T03:19:40;20.90;99.90
44277;DHT22;29973;43.742;1.236;2022-08-26T03:22:06;20.80;99.90
44277;DHT22;29973;43.742;1.236;2022-08-26T03:24:32;20.80;99.90
44277;DHT22;29973;43.742;1.236;2022-08-26T03:26:58;20.90;99.90
44277;DHT22;29973;43.742;1.236;2022-08-26T03:29:23;20.80;99.90
44277;DHT22;29973;43.742;1.236;2022-08-26T03:32:08;20.80;99.90
44277;DHT22;29973;43.742;1.236;2022-08-26T03:34:34;20.80;99.90
44277;DHT22;29973;43.742;1.236;2022-08-26T03:37:00;20.80;99.90
44277;DHT22;29973;43.742;1.236;2022-08-26T03:39:26;20.80;99.90
44277;DHT22;29973;43.742;1.236;2022-08-26T03:41:52;20.80;99.90
44277;DHT22;29973;43.742;1.236;2022-08-26T03:44:18;20.80;99.90
44277;DHT22;29973;43.742;1.236;2022-08-26T03:46:43;20.80;99.90
44277;DHT22;29973;43.742;1.236;2022-08-26T03:49:09;20.80;99.90
44277;DHT22;29973;43.742;1.236;2022-08-26T03:51:36;20.90;99.90
44277;DHT22;29973;43.742;1.236;2022-08-26T03:54:02;20.90;99.90
44277;DHT22;29973;43.742;1.236;2022-08-26T03:56:29;20.80;99.90
44277;DHT22;29973;43.742;1.236;2022-08-26T03:58:55;20.80;99.90
44277;DHT22;29973;43.742;1.236;2022-08-26T04:01:20;20.80;99.90
44277;DHT22;29973;43.742;1.236;2022-08-26T04:03:46;20.70;99.90
44277;DHT22;29973;43.742;1.236;2022-08-26T04:06:36;20.70;99.90
44277;DHT22;29973;43.742;1.236;2022-08-26T04:09:05;20.70;99.90
44277;DHT22;29973;43.742;1.236;2022-08-26T04:11:33;20.60;99.90
44277;DHT22;29973;43.742;1.236;2022-08-26T04:14:03;20.60;99.90
44277;DHT22;29973;43.742;1.236;2022-08-26T04:16:29;20.50;99.90
44277;DHT22;29973;43.742;1.236;2022-08-26T04:18:56;20.60;99.90
44277;DHT22;29973;43.742;1.236;2022-08-26T04:21:23;20.60;99.90
44277;DHT22;29973;43.742;1.236;2022-08-26T04:23:49;20.40;99.90
44277;DHT22;29973;43.742;1.236;2022-08-26T04:26:17;20.40;99.90
44277;DHT22;29973;43.742;1.236;2022-08-26T04:28:43;20.40;99.90
44277;DHT22;29973;43.742;1.236;2022-08-26T04:31:11;20.40;99.90
44277;DHT22;29973;43.742;1.236;2022-08-26T04:33:37;20.30;99.90
44277;DHT22;29973;43.742;1.236;2022-08-26T04:36:03;20.30;99.90
44277;DHT22;29973;43.742;1.236;2022-08-26T04:38:30;20.30;99.90
44277;DHT22;29973;43.742;1.236;2022-08-26T04:40:56;20.40;99.90
44277;DHT22;29973;43.742;1.236;2022-08-26T04:43:23;20.40;99.90
44277;DHT22;29973;43.742;1.236;2022-08-26T04:45:53;20.30;99.90
44277;DHT22;29973;43.742;1.236;2022-08-26T04:48:19;20.40;99.90
44277;DHT22;29973;43.742;1.236;2022-08-26T04:50:44;20.40;99.90
44277;DHT22;29973;43.742;1.236;2022-08-26T04:53:11;20.50;99.90
44277;DHT22;29973;43.742;1.236;2022-08-26T04:55:37;20.50;99.90
44277;DHT22;29973;43.742;1.236;2022-08-26T04:58:04;20.40;99.90
44277;DHT22;29973;43.742;1.236;2022-08-26T05:00:33;20.40;99.90
44277;DHT22;29973;43.742;1.236;2022-08-26T05:02:59;20.50;99.90
44277;DHT22;29973;43.742;1.236;2022-08-26T05:05:25;20.40;99.90
44277;DHT22;29973;43.742;1.236;2022-08-26T05:07:51;20.40;99.90
44277;DHT22;29973;43.742;1.236;2022-08-26T05:10:18;20.40;99.90
44277;DHT22;29973;43.742;1.236;2022-08-26T05:12:44;20.40;99.90
44277;DHT22;29973;43.742;1.236;2022-08-26T05:15:10;20.40;99.90
44277;DHT22;29973;43.742;1.236;2022-08-26T05:17:36;20.40;99.90
44277;DHT22;29973;43.742;1.236;2022-08-26T05:20:02;20.40;99.90
44277;DHT22;29973;43.742;1.236;2022-08-26T05:22:28;20.30;99.90
44277;DHT22;29973;43.742;1.236;2022-08-26T05:24:54;20.20;99.90
44277;DHT22;29973;43.742;1.236;2022-08-26T05:27:20;20.30;99.90
44277;DHT22;29973;43.742;1.236;2022-08-26T05:29:45;20.30;99.90
44277;DHT22;29973;43.742;1.236;2022-08-26T05:32:12;20.40;99.90
44277;DHT22;29973;43.742;1.236;2022-08-26T05:34:39;20.30;99.90
44277;DHT22;29973;43.742;1.236;2022-08-26T05:37:05;20.40;99.90
44277;DHT22;29973;43.742;1.236;2022-08-26T05:39:33;20.50;99.90
44277;DHT22;29973;43.742;1.236;2022-08-26T05:41:59;20.60;99.90
44277;DHT22;29973;43.742;1.236;2022-08-26T05:44:25;20.60;99.90
44277;DHT22;29973;43.742;1.236;2022-08-26T05:46:50;20.60;99.90
44277;DHT22;29973;43.742;1.236;2022-08-26T05:49:16;20.50;99.90
44277;DHT22;29973;43.742;1.236;2022-08-26T05:51:43;20.60;99.90
44277;DHT22;29973;43.742;1.236;2022-08-26T05:54:11;20.60;99.90
44277;DHT22;29973;43.742;1.236;2022-08-26T05:56:38;20.60;99.90
44277;DHT22;29973;43.742;1.236;2022-08-26T05:59:04;20.80;99.90
44277;DHT22;29973;43.742;1.236;2022-08-26T06:01:30;20.70;99.90
44277;DHT22;29973;43.742;1.236;2022-08-26T06:03:59;20.90;99.90
44277;DHT22;29973;43.742;1.236;2022-08-26T06:06:31;20.80;99.90
44277;DHT22;29973;43.742;1.236;2022-08-26T06:08:59;20.90;99.90
44277;DHT22;29973;43.742;1.236;2022-08-26T06:11:27;21.10;99.90
44277;DHT22;29973;43.742;1.236;2022-08-26T06:13:54;21.10;99.90
44277;DHT22;29973;43.742;1.236;2022-08-26T06:16:21;21.10;99.90
44277;DHT22;29973;43.742;1.236;2022-08-26T06:18:51;21.30;99.90
44277;DHT22;29973;43.742;1.236;2022-08-26T06:23:45;21.20;99.90
44277;DHT22;29973;43.742;1.236;2022-08-26T06:26:31;21.00;99.90
44277;DHT22;29973;43.742;1.236;2022-08-26T06:28:57;21.10;99.90
44277;DHT22;29973;43.742;1.236;2022-08-26T06:31:23;21.20;99.90
44277;DHT22;29973;43.742;1.236;2022-08-26T06:33:50;21.20;99.90
44277;DHT22;29973;43.742;1.236;2022-08-26T06:36:17;21.30;99.90
44277;DHT22;29973;43.742;1.236;2022-08-26T06:38:46;21.50;99.90
44277;DHT22;29973;43.742;1.236;2022-08-26T06:41:12;21.70;99.90
44277;DHT22;29973;43.742;1.236;2022-08-26T06:43:37;21.70;99.90
44277;DHT22;29973;43.742;1.236;2022-08-26T06:46:10;21.50;99.90
44277;DHT22;29973;43.742;1.236;2022-08-26T06:48:36;21.50;99.90
44277;DHT22;29973;43.742;1.236;2022-08-26T06:51:11;21.40;99.90
44277;DHT22;29973;43.742;1.236;2022-08-26T06:53:38;21.30;99.90
44277;DHT22;29973;43.742;1.236;2022-08-26T06:56:06;21.40;99.90
44277;DHT22;29973;43.742;1.236;2022-08-26T06:58:33;21.20;99.90
44277;DHT22;29973;43.742;1.236;2022-08-26T07:01:00;21.30;99.90
44277;DHT22;29973;43.742;1.236;2022-08-26T07:03:26;21.30;99.90
44277;DHT22;29973;43.742;1.236;2022-08-26T07:05:52;21.70;99.90
44277;DHT22;29973;43.742;1.236;2022-08-26T07:08:17;21.90;99.90
44277;DHT22;29973;43.742;1.236;2022-08-26T07:10:43;22.10;99.90
44277;DHT22;29973;43.742;1.236;2022-08-26T07:13:09;22.00;99.90
44277;DHT22;29973;43.742;1.236;2022-08-26T07:15:40;22.00;99.90
44277;DHT22;29973;43.742;1.236;2022-08-26T07:18:06;22.20;99.90
44277;DHT22;29973;43.742;1.236;2022-08-26T07:20:36;22.00;99.90
44277;DHT22;29973;43.742;1.236;2022-08-26T07:23:05;22.20;99.90
44277;DHT22;29973;43.742;1.236;2022-08-26T07:25:30;22.10;99.90
44277;DHT22;29973;43.742;1.236;2022-08-26T07:27:56;22.50;99.90
44277;DHT22;29973;43.742;1.236;2022-08-26T07:30:22;22.60;99.90
44277;DHT22;29973;43.742;1.236;2022-08-26T07:32:47;23.00;99.90
44277;DHT22;29973;43.742;1.236;2022-08-26T07:35:14;23.30;99.90
44277;DHT22;29973;43.742;1.236;2022-08-26T07:37:40;22.60;99.90
44277;DHT22;29973;43.742;1.236;2022-08-26T07:40:06;23.00;99.90
44277;DHT22;29973;43.742;1.236;2022-08-26T07:42:33;23.20;99.90
44277;DHT22;29973;43.742;1.236;2022-08-26T07:44:59;22.60;99.90
44277;DHT22;29973;43.742;1.236;2022-08-26T07:47:25;22.30;99.90
44277;DHT22;29973;43.742;1.236;2022-08-26T07:49:53;22.70;99.90
44277;DHT22;29973;43.742;1.236;2022-08-26T07:52:18;23.10;99.90
44277;DHT22;29973;43.742;1.236;2022-08-26T07:54:44;23.00;99.90
44277;DHT22;29973;43.742;1.236;2022-08-26T07:57:10;22.90;99.90
44277;DHT22;29973;43.742;1.236;2022-08-26T07:59:35;22.70;99.90
44277;DHT22;29973;43.742;1.236;2022-08-26T08:02:01;22.80;99.90
44277;DHT22;29973;43.742;1.236;2022-08-26T08:04:27;23.30;99.90
44277;DHT22;29973;43.742;1.236;2022-08-26T08:06:53;23.30;99.90
44277;DHT22;29973;43.742;1.236;2022-08-26T08:09:19;23.60;99.90
44277;DHT22;29973;43.742;1.236;2022-08-26T08:11:45;23.40;99.90
44277;DHT22;29973;43.742;1.236;2022-08-26T08:14:12;23.30;99.90
44277;DHT22;29973;43.742;1.236;2022-08-26T08:16:37;22.90;99.90
44277;DHT22;29973;43.742;1.236;2022-08-26T08:19:03;23.60;99.90
44277;DHT22;29973;43.742;1.236;2022-08-26T08:21:29;24.90;99.90
44277;DHT22;29973;43.742;1.236;2022-08-26T08:23:56;24.80;99.90
44277;DHT22;29973;43.742;1.236;2022-08-26T08:26:24;24.40;99.90
44277;DHT22;29973;43.742;1.236;2022-08-26T08:28:52;24.60;99.90
44277;DHT22;29973;43.742;1.236;2022-08-26T08:31:20;24.90;99.90
44277;DHT22;29973;43.742;1.236;2022-08-26T08:33:46;24.50;99.90
44277;DHT22;29973;43.742;1.236;2022-08-26T08:36:12;25.10;99.90
44277;DHT22;29973;43.742;1.236;2022-08-26T08:38:39;25.00;99.90
44277;DHT22;29973;43.742;1.236;2022-08-26T08:43:58;25.00;99.90
44277;DHT22;29973;43.742;1.236;2022-08-26T08:46:24;24.80;99.90
44277;DHT22;29973;43.742;1.236;2022-08-26T08:48:53;24.90;99.90
44277;DHT22;29973;43.742;1.236;2022-08-26T08:53:55;24.80;99.90
44277;DHT22;29973;43.742;1.236;2022-08-26T08:56:50;25.40;99.90
44277;DHT22;29973;43.742;1.236;2022-08-26T09:06:48;25.00;99.90
44277;DHT22;29973;43.742;1.236;2022-08-26T09:09:22;25.20;99.90
44277;DHT22;29973;43.742;1.236;2022-08-26T09:11:50;25.20;99.90
44277;DHT22;29973;43.742;1.236;2022-08-26T09:14:16;25.80;99.90
44277;DHT22;29973;43.742;1.236;2022-08-26T09:16:50;25.60;99.90
44277;DHT22;29973;43.742;1.236;2022-08-26T09:19:34;25.30;99.90
44277;DHT22;29973;43.742;1.236;2022-08-26T09:22:03;26.00;99.90
44277;DHT22;29973;43.742;1.236;2022-08-26T09:24:38;26.10;99.90
44277;DHT22;29973;43.742;1.236;2022-08-26T09:27:04;26.70;99.90
44277;DHT22;29973;43.742;1.236;2022-08-26T09:29:35;26.40;99.90
44277;DHT22;29973;43.742;1.236;2022-08-26T09:32:23;26.50;99.90
44277;DHT22;29973;43.742;1.236;2022-08-26T09:35:22;26.60;99.90
44277;DHT22;29973;43.742;1.236;2022-08-26T09:37:48;26.50;99.90
44277;DHT22;29973;43.742;1.236;2022-08-26T09:40:30;26.40;99.90
44277;DHT22;29973;43.742;1.236;2022-08-26T09:43:17;26.50;99.90
44277;DHT22;29973;43.742;1.236;2022-08-26T09:46:17;27.60;99.90
44277;DHT22;29973;43.742;1.236;2022-08-26T09:48:43;28.00;99.90
44277;DHT22;29973;43.742;1.236;2022-08-26T09:51:26;27.90;99.90
44277;DHT22;29973;43.742;1.236;2022-08-26T09:54:00;28.30;99.90
44277;DHT22;29973;43.742;1.236;2022-08-26T09:56:30;29.40;99.90
44277;DHT22;29973;43.742;1.236;2022-08-26T09:58:57;28.50;99.90
44277;DHT22;29973;43.742;1.236;2022-08-26T10:03:52;27.90;99.90
44277;DHT22;29973;43.742;1.236;2022-08-26T10:06:27;27.80;99.90
44277;DHT22;29973;43.742;1.236;2022-08-26T10:08:56;28.10;99.90
44277;DHT22;29973;43.742;1.236;2022-08-26T10:11:43;27.90;99.90
44277;DHT22;29973;43.742;1.236;2022-08-26T10:17:15;27.70;99.90
44277;DHT22;29973;43.742;1.236;2022-08-26T10:19:53;27.40;99.90
44277;DHT22;29973;43.742;1.236;2022-08-26T10:22:43;27.80;99.90
44277;DHT22;29973;43.742;1.236;2022-08-26T10:25:15;28.30;99.90
44277;DHT22;29973;43.742;1.236;2022-08-26T10:28:08;27.40;99.90
44277;DHT22;29973;43.742;1.236;2022-08-26T10:30:44;27.50;99.90
44277;DHT22;29973;43.742;1.236;2022-08-26T10:33:12;27.20;99.90
44277;DHT22;29973;43.742;1.236;2022-08-26T10:35:55;27.20;99.90
44277;DHT22;29973;43.742;1.236;2022-08-26T10:38:26;27.90;99.90
44277;DHT22;29973;43.742;1.236;2022-08-26T10:41:13;27.90;99.90
44277;DHT22;29973;43.742;1.236;2022-08-26T10:43:46;28.20;99.90
44277;DHT22;29973;43.742;1.236;2022-08-26T10:46:17;29.10;99.90
44277;DHT22;29973;43.742;1.236;2022-08-26T10:49:07;28.10;99.90
44277;DHT22;29973;43.742;1.236;2022-08-26T10:51:46;27.10;99.90
44277;DHT22;29973;43.742;1.236;2022-08-26T10:54:19;27.50;99.90
44277;DHT22;29973;43.742;1.236;2022-08-26T10:59:47;27.70;99.90
44277;DHT22;29973;43.742;1.236;2022-08-26T11:02:38;28.10;99.90
44277;DHT22;29973;43.742;1.236;2022-08-26T11:05:20;27.30;99.90
44277;DHT22;29973;43.742;1.236;2022-08-26T11:07:52;27.40;99.90
44277;DHT22;29973;43.742;1.236;2022-08-26T11:12:53;31.70;99.90
44277;DHT22;29973;43.742;1.236;2022-08-26T11:22:42;29.00;99.90
44277;DHT22;29973;43.742;1.236;2022-08-26T11:25:14;28.10;99.90
44277;DHT22;29973;43.742;1.236;2022-08-26T11:35:08;30.50;99.90
44277;DHT22;29973;43.742;1.236;2022-08-26T11:37:58;28.90;99.90
44277;DHT22;29973;43.742;1.236;2022-08-26T11:40:34;28.00;99.90
44277;DHT22;29973;43.742;1.236;2022-08-26T11:43:19;28.10;99.90
44277;DHT22;29973;43.742;1.236;2022-08-26T11:45:56;27.30;99.90
44277;DHT22;29973;43.742;1.236;2022-08-26T11:48:28;26.90;99.90
44277;DHT22;29973;43.742;1.236;2022-08-26T11:51:07;26.60;99.90
44277;DHT22;29973;43.742;1.236;2022-08-26T11:53:42;26.80;99.90
44277;DHT22;29973;43.742;1.236;2022-08-26T11:56:28;27.40;99.90
44277;DHT22;29973;43.742;1.236;2022-08-26T11:58:58;27.60;99.90
44277;DHT22;29973;43.742;1.236;2022-08-26T12:01:36;27.80;99.90
44277;DHT22;29973;43.742;1.236;2022-08-26T12:04:04;29.10;99.90
44277;DHT22;29973;43.742;1.236;2022-08-26T12:06:35;32.20;99.90
44277;DHT22;29973;43.742;1.236;2022-08-26T12:09:06;32.40;99.90
44277;DHT22;29973;43.742;1.236;2022-08-26T12:11:34;31.10;99.90
44277;DHT22;29973;43.742;1.236;2022-08-26T12:14:15;28.80;99.90
44277;DHT22;29973;43.742;1.236;2022-08-26T12:16:41;31.30;99.90
44277;DHT22;29973;43.742;1.236;2022-08-26T12:19:40;35.30;99.90
44277;DHT22;29973;43.742;1.236;2022-08-26T12:24:53;29.80;99.90
44277;DHT22;29973;43.742;1.236;2022-08-26T12:27:21;29.00;99.90
44277;DHT22;29973;43.742;1.236;2022-08-26T12:30:09;28.30;99.90
44277;DHT22;29973;43.742;1.236;2022-08-26T12:32:38;28.30;99.90
44277;DHT22;29973;43.742;1.236;2022-08-26T12:35:06;28.40;99.90
44277;DHT22;29973;43.742;1.236;2022-08-26T12:37:34;28.10;99.90
44277;DHT22;29973;43.742;1.236;2022-08-26T12:40:43;28.10;99.90
44277;DHT22;29973;43.742;1.236;2022-08-26T12:43:12;29.50;99.90
44277;DHT22;29973;43.742;1.236;2022-08-26T12:45:56;31.20;99.90
44277;DHT22;29973;43.742;1.236;2022-08-26T12:48:33;35.10;99.90
44277;DHT22;29973;43.742;1.236;2022-08-26T12:51:00;35.00;99.90
44277;DHT22;29973;43.742;1.236;2022-08-26T12:53:31;34.80;99.90
44277;DHT22;29973;43.742;1.236;2022-08-26T12:56:00;34.30;99.90
44277;DHT22;29973;43.742;1.236;2022-08-26T12:58:32;35.00;99.90
44277;DHT22;29973;43.742;1.236;2022-08-26T13:09:02;36.20;97.60
44277;DHT22;29973;43.742;1.236;2022-08-26T13:14:10;35.80;99.00
44277;DHT22;29973;43.742;1.236;2022-08-26T13:16:38;36.60;97.70
44277;DHT22;29973;43.742;1.236;2022-08-26T13:19:07;35.50;97.00
44277;DHT22;29973;43.742;1.236;2022-08-26T13:21:35;31.30;99.90
44277;DHT22;29973;43.742;1.236;2022-08-26T13:24:05;32.00;99.90
44277;DHT22;29973;43.742;1.236;2022-08-26T13:26:31;33.20;99.90
44277;DHT22;29973;43.742;1.236;2022-08-26T13:28:57;35.80;98.80
44277;DHT22;29973;43.742;1.236;2022-08-26T13:31:25;38.30;94.50
44277;DHT22;29973;43.742;1.236;2022-08-26T13:33:51;36.60;92.90
44277;DHT22;29973;43.742;1.236;2022-08-26T13:36:17;38.30;92.80
44277;DHT22;29973;43.742;1.236;2022-08-26T13:38:42;37.90;90.70
44277;DHT22;29973;43.742;1.236;2022-08-26T13:41:08;38.30;90.90
44277;DHT22;29973;43.742;1.236;2022-08-26T13:43:34;38.60;91.00
44277;DHT22;29973;43.742;1.236;2022-08-26T13:46:00;36.30;93.10
44277;DHT22;29973;43.742;1.236;2022-08-26T13:48:26;33.70;94.40
44277;DHT22;29973;43.742;1.236;2022-08-26T13:50:51;35.40;94.00
44277;DHT22;29973;43.742;1.236;2022-08-26T13:53:18;33.50;94.70
44277;DHT22;29973;43.742;1.236;2022-08-26T13:55:45;37.30;91.90
44277;DHT22;29973;43.742;1.236;2022-08-26T13:58:11;36.50;91.50
44277;DHT22;29973;43.742;1.236;2022-08-26T14:00:38;35.90;92.40
44277;DHT22;29973;43.742;1.236;2022-08-26T14:03:05;38.70;90.80
44277;DHT22;29973;43.742;1.236;2022-08-26T14:05:30;35.50;91.00
44277;DHT22;29973;43.742;1.236;2022-08-26T14:07:56;32.90;94.20
44277;DHT22;29973;43.742;1.236;2022-08-26T14:10:24;34.60;93.90
44277;DHT22;29973;43.742;1.236;2022-08-26T14:12:50;38.00;91.10
44277;DHT22;29973;43.742;1.236;2022-08-26T14:15:17;37.10;87.20
44277;DHT22;29973;43.742;1.236;2022-08-26T14:17:44;37.70;88.80
44277;DHT22;29973;43.742;1.236;2022-08-26T14:20:13;39.70;85.70
44277;DHT22;29973;43.742;1.236;2022-08-26T14:22:42;36.70;86.00
44277;DHT22;29973;43.742;1.236;2022-08-26T14:25:11;38.10;85.20
44277;DHT22;29973;43.742;1.236;2022-08-26T14:27:37;37.40;87.10
44277;DHT22;29973;43.742;1.236;2022-08-26T14:30:04;38.00;85.60
44277;DHT22;29973;43.742;1.236;2022-08-26T14:32:30;37.20;88.50
44277;DHT22;29973;43.742;1.236;2022-08-26T14:34:57;36.30;89.20
44277;DHT22;29973;43.742;1.236;2022-08-26T14:37:23;38.80;84.50
44277;DHT22;29973;43.742;1.236;2022-08-26T14:39:50;37.90;85.50
44277;DHT22;29973;43.742;1.236;2022-08-26T14:42:20;38.30;84.10
44277;DHT22;29973;43.742;1.236;2022-08-26T14:44:51;38.70;83.70
44277;DHT22;29973;43.742;1.236;2022-08-26T14:47:17;36.10;87.60
44277;DHT22;29973;43.742;1.236;2022-08-26T14:49:44;38.00;84.80
44277;DHT22;29973;43.742;1.236;2022-08-26T14:52:10;36.50;86.70
44277;DHT22;29973;43.742;1.236;2022-08-26T14:54:35;36.50;86.80
44277;DHT22;29973;43.742;1.236;2022-08-26T14:57:05;37.30;83.60
44277;DHT22;29973;43.742;1.236;2022-08-26T15:01:58;33.00;90.30
44277;DHT22;29973;43.742;1.236;2022-08-26T15:04:25;33.50;91.80
44277;DHT22;29973;43.742;1.236;2022-08-26T15:06:52;36.70;88.90
44277;DHT22;29973;43.742;1.236;2022-08-26T15:09:19;37.30;87.00
44277;DHT22;29973;43.742;1.236;2022-08-26T15:11:44;38.30;84.20
44277;DHT22;29973;43.742;1.236;2022-08-26T15:14:10;38.60;82.60
44277;DHT22;29973;43.742;1.236;2022-08-26T15:16:37;39.90;82.10
44277;DHT22;29973;43.742;1.236;2022-08-26T15:19:03;37.60;81.20
44277;DHT22;29973;43.742;1.236;2022-08-26T15:21:30;39.50;81.10
44277;DHT22;29973;43.742;1.236;2022-08-26T15:23:56;38.20;83.10
44277;DHT22;29973;43.742;1.236;2022-08-26T15:26:22;39.10;81.20
44277;DHT22;29973;43.742;1.236;2022-08-26T15:28:49;40.50;78.20
44277;DHT22;29973;43.742;1.236;2022-08-26T15:31:15;41.10;77.50
44277;DHT22;29973;43.742;1.236;2022-08-26T15:33:41;40.50;77.10
44277;DHT22;29973;43.742;1.236;2022-08-26T15:36:07;40.90;74.90
44277;DHT22;29973;43.742;1.236;2022-08-26T15:38:36;40.70;77.90
44277;DHT22;29973;43.742;1.236;2022-08-26T15:41:04;39.90;79.10
44277;DHT22;29973;43.742;1.236;2022-08-26T15:43:30;37.10;81.00
44277;DHT22;29973;43.742;1.236;2022-08-26T15:45:56;38.00;80.10
44277;DHT22;29973;43.742;1.236;2022-08-26T15:48:23;36.60;81.50
44277;DHT22;29973;43.742;1.236;2022-08-26T15:50:57;38.10;79.10
44277;DHT22;29973;43.742;1.236;2022-08-26T15:53:24;39.40;79.00
44277;DHT22;29973;43.742;1.236;2022-08-26T15:55:53;38.70;78.60
44277;DHT22;29973;43.742;1.236;2022-08-26T15:58:19;38.30;77.80
44277;DHT22;29973;43.742;1.236;2022-08-26T16:00:45;36.70;82.00
44277;DHT22;29973;43.742;1.236;2022-08-26T16:03:11;38.20;78.70
44277;DHT22;29973;43.742;1.236;2022-08-26T16:05:40;40.00;77.60
44277;DHT22;29973;43.742;1.236;2022-08-26T16:08:08;37.90;76.20
44277;DHT22;29973;43.742;1.236;2022-08-26T16:10:36;34.10;83.30
44277;DHT22;29973;43.742;1.236;2022-08-26T16:13:02;32.10;88.30
44277;DHT22;29973;43.742;1.236;2022-08-26T16:15:31;35.90;83.60
44277;DHT22;29973;43.742;1.236;2022-08-26T16:18:00;37.00;80.50
44277;DHT22;29973;43.742;1.236;2022-08-26T16:20:29;35.80;78.80
44277;DHT22;29973;43.742;1.236;2022-08-26T16:22:57;37.10;82.20
44277;DHT22;29973;43.742;1.236;2022-08-26T16:25:23;38.50;78.20
44277;DHT22;29973;43.742;1.236;2022-08-26T16:27:49;37.70;77.00
44277;DHT22;29973;43.742;1.236;2022-08-26T16:30:17;37.80;78.60
44277;DHT22;29973;43.742;1.236;2022-08-26T16:32:47;36.90;77.80
44277;DHT22;29973;43.742;1.236;2022-08-26T16:35:13;33.20;82.90
44277;DHT22;29973;43.742;1.236;2022-08-26T16:37:40;34.50;84.00
44277;DHT22;29973;43.742;1.236;2022-08-26T16:40:07;35.50;80.50
44277;DHT22;29973;43.742;1.236;2022-08-26T16:42:34;37.30;79.70
44277;DHT22;29973;43.742;1.236;2022-08-26T16:45:02;38.00;76.70